sensor_id;sensor_type;location;lat;lon;timestamp;P1;durP1;ratioP1;P2;durP2;ratioP2
49103;SDS011;34915;52.926;11.116;2022-11-15T00:01:52;14.13;;;8.30;;
49103;SDS011;34915;52.926;11.116;2022-11-15T00:04:18;12.93;;;8.10;;
49103;SDS011;34915;52.926;11.116;2022-11-15T00:06:43;14.00;;;8.30;;
49103;SDS011;34915;52.926;11.116;2022-11-15T00:09:09;12.73;;;7.63;;
49103;SDS011;34915;52.926;11.116;2022-11-15T00:11:35;13.83;;;8.40;;
49103;SDS011;34915;52.926;11.116;2022-11-15T00:14:00;19.00;;;8.23;;
49103;SDS011;34915;52.926;11.116;2022-11-15T00:16:27;11.30;;;7.67;;
49103;SDS011;34915;52.926;11.116;2022-11-15T00:18:53;14.93;;;7.83;;
49103;SDS011;34915;52.926;11.116;2022-11-15T00:21:19;13.90;;;8.33;;
49103;SDS011;34915;52.926;11.116;2022-11-15T00:23:44;10.40;;;6.53;;
49103;SDS011;34915;52.926;11.116;2022-11-15T00:26:11;13.07;;;8.00;;
49103;SDS011;34915;52.926;11.116;2022-11-15T00:28:38;12.73;;;7.97;;
49103;SDS011;34915;52.926;11.116;2022-11-15T00:31:04;12.37;;;7.00;;
49103;SDS011;34915;52.926;11.116;2022-11-15T00:33:32;16.40;;;8.03;;
49103;SDS011;34915;52.926;11.116;2022-11-15T00:36:07;12.73;;;7.73;;
49103;SDS011;34915;52.926;11.116;2022-11-15T00:38:38;12.43;;;7.80;;
49103;SDS011;34915;52.926;11.116;2022-11-15T00:41:05;12.80;;;7.77;;
49103;SDS011;34915;52.926;11.116;2022-11-15T00:43:32;11.33;;;7.90;;
49103;SDS011;34915;52.926;11.116;2022-11-15T00:45:58;10.93;;;6.73;;
49103;SDS011;34915;52.926;11.116;2022-11-15T00:48:24;13.30;;;6.90;;
49103;SDS011;34915;52.926;11.116;2022-11-15T00:50:50;12.57;;;7.17;;
49103;SDS011;34915;52.926;11.116;2022-11-15T00:53:16;11.43;;;6.87;;
49103;SDS011;34915;52.926;11.116;2022-11-15T00:55:42;12.97;;;7.80;;
49103;SDS011;34915;52.926;11.116;2022-11-15T00:58:07;10.97;;;6.07;;
49103;SDS011;34915;52.926;11.116;2022-11-15T01:00:33;11.70;;;6.80;;
49103;SDS011;34915;52.926;11.116;2022-11-15T01:03:02;13.30;;;7.23;;
49103;SDS011;34915;52.926;11.116;2022-11-15T01:05:27;10.93;;;7.60;;
49103;SDS011;34915;52.926;11.116;2022-11-15T01:07:54;11.37;;;7.07;;
49103;SDS011;34915;52.926;11.116;2022-11-15T01:10:21;9.73;;;6.17;;
49103;SDS011;34915;52.926;11.116;2022-11-15T01:12:48;11.80;;;7.30;;
49103;SDS011;34915;52.926;11.116;2022-11-15T01:15:17;11.70;;;7.23;;
49103;SDS011;34915;52.926;11.116;2022-11-15T01:17:45;9.97;;;6.90;;
49103;SDS011;34915;52.926;11.116;2022-11-15T01:20:10;11.17;;;6.83;;
49103;SDS011;34915;52.926;11.116;2022-11-15T01:22:36;12.57;;;7.07;;
49103;SDS011;34915;52.926;11.116;2022-11-15T01:25:02;11.40;;;7.07;;
49103;SDS011;34915;52.926;11.116;2022-11-15T01:27:28;15.00;;;7.73;;
49103;SDS011;34915;52.926;11.116;2022-11-15T01:29:53;12.37;;;6.67;;
49103;SDS011;34915;52.926;11.116;2022-11-15T01:32:19;11.57;;;6.67;;
49103;SDS011;34915;52.926;11.116;2022-11-15T01:34:45;10.53;;;6.97;;
49103;SDS011;34915;52.926;11.116;2022-11-15T01:37:10;10.33;;;6.63;;
49103;SDS011;34915;52.926;11.116;2022-11-15T01:39:36;10.40;;;7.33;;
49103;SDS011;34915;52.926;11.116;2022-11-15T01:42:02;11.70;;;7.30;;
49103;SDS011;34915;52.926;11.116;2022-11-15T01:47:00;13.40;;;7.57;;
49103;SDS011;34915;52.926;11.116;2022-11-15T01:49:29;12.47;;;7.40;;
49103;SDS011;34915;52.926;11.116;2022-11-15T01:51:57;9.97;;;6.30;;
49103;SDS011;34915;52.926;11.116;2022-11-15T01:54:25;13.60;;;6.97;;
49103;SDS011;34915;52.926;11.116;2022-11-15T01:56:58;10.90;;;7.23;;
49103;SDS011;34915;52.926;11.116;2022-11-15T01:59:26;10.67;;;6.80;;
49103;SDS011;34915;52.926;11.116;2022-11-15T02:01:52;9.77;;;6.33;;
49103;SDS011;34915;52.926;11.116;2022-11-15T02:04:20;12.17;;;6.53;;
49103;SDS011;34915;52.926;11.116;2022-11-15T02:06:51;8.57;;;6.27;;
49103;SDS011;34915;52.926;11.116;2022-11-15T02:09:17;10.30;;;5.93;;
49103;SDS011;34915;52.926;11.116;2022-11-15T02:11:45;10.70;;;6.20;;
49103;SDS011;34915;52.926;11.116;2022-11-15T02:14:12;11.40;;;6.63;;
49103;SDS011;34915;52.926;11.116;2022-11-15T02:16:57;11.10;;;7.03;;
49103;SDS011;34915;52.926;11.116;2022-11-15T02:25:08;9.17;;;6.37;;
49103;SDS011;34915;52.926;11.116;2022-11-15T02:30:43;7.87;;;5.93;;
49103;SDS011;34915;52.926;11.116;2022-11-15T02:36:00;8.67;;;6.17;;
49103;SDS011;34915;52.926;11.116;2022-11-15T02:38:43;8.77;;;6.80;;
49103;SDS011;34915;52.926;11.116;2022-11-15T02:41:20;10.63;;;6.83;;
49103;SDS011;34915;52.926;11.116;2022-11-15T02:43:50;9.20;;;6.30;;
49103;SDS011;34915;52.926;11.116;2022-11-15T02:46:36;9.70;;;5.83;;
49103;SDS011;34915;52.926;11.116;2022-11-15T02:49:28;11.60;;;6.97;;
49103;SDS011;34915;52.926;11.116;2022-11-15T02:51:59;10.17;;;6.37;;
49103;SDS011;34915;52.926;11.116;2022-11-15T02:54:26;11.37;;;6.73;;
49103;SDS011;34915;52.926;11.116;2022-11-15T02:56:54;9.83;;;6.73;;
49103;SDS011;34915;52.926;11.116;2022-11-15T02:59:29;10.83;;;5.87;;
49103;SDS011;34915;52.926;11.116;2022-11-15T03:02:14;12.70;;;6.90;;
49103;SDS011;34915;52.926;11.116;2022-11-15T03:11:08;11.47;;;6.50;;
49103;SDS011;34915;52.926;11.116;2022-11-15T03:13:45;11.23;;;6.40;;
49103;SDS011;34915;52.926;11.116;2022-11-15T03:22:06;10.10;;;6.23;;
49103;SDS011;34915;52.926;11.116;2022-11-15T03:24:35;11.13;;;6.17;;
49103;SDS011;34915;52.926;11.116;2022-11-15T03:27:03;10.73;;;6.47;;
49103;SDS011;34915;52.926;11.116;2022-11-15T03:29:45;12.50;;;7.00;;
49103;SDS011;34915;52.926;11.116;2022-11-15T03:32:16;8.37;;;5.87;;
49103;SDS011;34915;52.926;11.116;2022-11-15T03:37:25;10.33;;;6.63;;
49103;SDS011;34915;52.926;11.116;2022-11-15T03:39:59;9.60;;;6.30;;
49103;SDS011;34915;52.926;11.116;2022-11-15T03:42:36;9.00;;;5.87;;
49103;SDS011;34915;52.926;11.116;2022-11-15T03:50:30;9.97;;;5.97;;
49103;SDS011;34915;52.926;11.116;2022-11-15T03:52:56;12.00;;;6.33;;
49103;SDS011;34915;52.926;11.116;2022-11-15T03:55:22;9.83;;;6.57;;
49103;SDS011;34915;52.926;11.116;2022-11-15T03:57:49;9.37;;;5.87;;
49103;SDS011;34915;52.926;11.116;2022-11-15T04:00:18;9.77;;;5.90;;
49103;SDS011;34915;52.926;11.116;2022-11-15T04:02:44;9.37;;;6.23;;
49103;SDS011;34915;52.926;11.116;2022-11-15T04:05:10;9.57;;;5.67;;
49103;SDS011;34915;52.926;11.116;2022-11-15T04:07:35;9.63;;;6.10;;
49103;SDS011;34915;52.926;11.116;2022-11-15T04:10:01;11.20;;;6.73;;
49103;SDS011;34915;52.926;11.116;2022-11-15T04:12:35;12.00;;;6.33;;
49103;SDS011;34915;52.926;11.116;2022-11-15T04:17:52;10.93;;;6.50;;
49103;SDS011;34915;52.926;11.116;2022-11-15T04:23:10;11.80;;;6.63;;
49103;SDS011;34915;52.926;11.116;2022-11-15T04:25:58;7.67;;;5.57;;
49103;SDS011;34915;52.926;11.116;2022-11-15T04:28:25;9.40;;;5.90;;
49103;SDS011;34915;52.926;11.116;2022-11-15T04:30:51;9.90;;;5.77;;
49103;SDS011;34915;52.926;11.116;2022-11-15T04:33:17;9.50;;;6.23;;
49103;SDS011;34915;52.926;11.116;2022-11-15T04:35:43;8.93;;;5.80;;
49103;SDS011;34915;52.926;11.116;2022-11-15T04:38:29;8.50;;;5.93;;
49103;SDS011;34915;52.926;11.116;2022-11-15T04:40:55;9.67;;;5.43;;
49103;SDS011;34915;52.926;11.116;2022-11-15T04:43:21;10.10;;;5.60;;
49103;SDS011;34915;52.926;11.116;2022-11-15T04:45:46;9.27;;;6.00;;
49103;SDS011;34915;52.926;11.116;2022-11-15T04:48:12;10.27;;;6.07;;
49103;SDS011;34915;52.926;11.116;2022-11-15T04:50:37;11.13;;;6.03;;
49103;SDS011;34915;52.926;11.116;2022-11-15T04:53:03;9.90;;;6.27;;
49103;SDS011;34915;52.926;11.116;2022-11-15T04:55:29;11.30;;;5.80;;
49103;SDS011;34915;52.926;11.116;2022-11-15T04:58:00;11.07;;;5.73;;
49103;SDS011;34915;52.926;11.116;2022-11-15T05:00:27;10.17;;;6.90;;
49103;SDS011;34915;52.926;11.116;2022-11-15T05:02:53;11.63;;;6.47;;
49103;SDS011;34915;52.926;11.116;2022-11-15T05:05:38;11.40;;;6.67;;
49103;SDS011;34915;52.926;11.116;2022-11-15T05:08:04;11.23;;;6.60;;
49103;SDS011;34915;52.926;11.116;2022-11-15T05:10:30;14.37;;;7.17;;
49103;SDS011;34915;52.926;11.116;2022-11-15T05:12:55;13.00;;;6.30;;
49103;SDS011;34915;52.926;11.116;2022-11-15T05:15:21;9.40;;;6.13;;
49103;SDS011;34915;52.926;11.116;2022-11-15T05:17:47;8.97;;;5.10;;
49103;SDS011;34915;52.926;11.116;2022-11-15T05:20:13;10.57;;;5.37;;
49103;SDS011;34915;52.926;11.116;2022-11-15T05:22:39;10.80;;;6.57;;
49103;SDS011;34915;52.926;11.116;2022-11-15T05:25:05;10.83;;;6.70;;
49103;SDS011;34915;52.926;11.116;2022-11-15T05:27:31;9.30;;;6.20;;
49103;SDS011;34915;52.926;11.116;2022-11-15T05:29:57;9.53;;;5.63;;
49103;SDS011;34915;52.926;11.116;2022-11-15T05:32:22;8.60;;;5.77;;
49103;SDS011;34915;52.926;11.116;2022-11-15T05:34:48;8.07;;;5.67;;
49103;SDS011;34915;52.926;11.116;2022-11-15T05:37:15;8.53;;;5.57;;
49103;SDS011;34915;52.926;11.116;2022-11-15T05:39:41;11.93;;;6.20;;
49103;SDS011;34915;52.926;11.116;2022-11-15T05:42:09;13.17;;;6.67;;
49103;SDS011;34915;52.926;11.116;2022-11-15T05:44:37;10.93;;;6.03;;
49103;SDS011;34915;52.926;11.116;2022-11-15T05:47:07;11.30;;;6.53;;
49103;SDS011;34915;52.926;11.116;2022-11-15T05:49:36;11.03;;;6.33;;
49103;SDS011;34915;52.926;11.116;2022-11-15T05:52:05;11.23;;;6.20;;
49103;SDS011;34915;52.926;11.116;2022-11-15T05:54:35;10.03;;;6.63;;
49103;SDS011;34915;52.926;11.116;2022-11-15T05:57:03;9.97;;;5.77;;
49103;SDS011;34915;52.926;11.116;2022-11-15T05:59:29;12.00;;;6.77;;
49103;SDS011;34915;52.926;11.116;2022-11-15T06:01:56;12.33;;;7.37;;
49103;SDS011;34915;52.926;11.116;2022-11-15T06:04:22;9.63;;;6.87;;
49103;SDS011;34915;52.926;11.116;2022-11-15T06:06:48;9.30;;;5.90;;
49103;SDS011;34915;52.926;11.116;2022-11-15T06:09:14;13.77;;;7.20;;
49103;SDS011;34915;52.926;11.116;2022-11-15T06:11:39;13.40;;;7.20;;
49103;SDS011;34915;52.926;11.116;2022-11-15T06:14:05;11.10;;;7.10;;
49103;SDS011;34915;52.926;11.116;2022-11-15T06:16:31;10.10;;;6.47;;
49103;SDS011;34915;52.926;11.116;2022-11-15T06:18:56;13.17;;;6.73;;
49103;SDS011;34915;52.926;11.116;2022-11-15T06:21:22;11.87;;;6.87;;
49103;SDS011;34915;52.926;11.116;2022-11-15T06:23:48;11.90;;;6.73;;
49103;SDS011;34915;52.926;11.116;2022-11-15T06:26:13;11.97;;;6.70;;
49103;SDS011;34915;52.926;11.116;2022-11-15T06:28:39;10.77;;;6.60;;
49103;SDS011;34915;52.926;11.116;2022-11-15T06:31:08;7.67;;;5.63;;
49103;SDS011;34915;52.926;11.116;2022-11-15T06:33:36;10.70;;;7.10;;
49103;SDS011;34915;52.926;11.116;2022-11-15T06:36:03;13.17;;;6.80;;
49103;SDS011;34915;52.926;11.116;2022-11-15T06:38:30;10.07;;;5.90;;
49103;SDS011;34915;52.926;11.116;2022-11-15T06:41:03;11.37;;;6.70;;
49103;SDS011;34915;52.926;11.116;2022-11-15T06:43:30;8.97;;;6.17;;
49103;SDS011;34915;52.926;11.116;2022-11-15T06:46:00;10.10;;;5.73;;
49103;SDS011;34915;52.926;11.116;2022-11-15T06:48:27;7.47;;;5.63;;
49103;SDS011;34915;52.926;11.116;2022-11-15T06:50:54;9.53;;;5.40;;
49103;SDS011;34915;52.926;11.116;2022-11-15T06:53:20;7.77;;;5.10;;
49103;SDS011;34915;52.926;11.116;2022-11-15T06:55:46;8.67;;;5.53;;
49103;SDS011;34915;52.926;11.116;2022-11-15T06:58:12;7.13;;;4.83;;
49103;SDS011;34915;52.926;11.116;2022-11-15T07:00:38;7.67;;;4.57;;
49103;SDS011;34915;52.926;11.116;2022-11-15T07:03:03;7.07;;;5.00;;
49103;SDS011;34915;52.926;11.116;2022-11-15T07:05:29;11.80;;;5.67;;
49103;SDS011;34915;52.926;11.116;2022-11-15T07:07:56;7.60;;;5.27;;
49103;SDS011;34915;52.926;11.116;2022-11-15T07:10:23;9.17;;;5.13;;
49103;SDS011;34915;52.926;11.116;2022-11-15T07:12:50;7.37;;;5.37;;
49103;SDS011;34915;52.926;11.116;2022-11-15T07:15:16;6.53;;;4.37;;
49103;SDS011;34915;52.926;11.116;2022-11-15T07:17:43;6.77;;;5.43;;
49103;SDS011;34915;52.926;11.116;2022-11-15T07:20:08;6.53;;;5.50;;
49103;SDS011;34915;52.926;11.116;2022-11-15T07:22:35;8.97;;;5.63;;
49103;SDS011;34915;52.926;11.116;2022-11-15T07:25:00;8.93;;;5.53;;
49103;SDS011;34915;52.926;11.116;2022-11-15T07:27:26;9.30;;;5.83;;
49103;SDS011;34915;52.926;11.116;2022-11-15T07:29:52;7.93;;;5.43;;
49103;SDS011;34915;52.926;11.116;2022-11-15T07:32:17;10.77;;;6.57;;
49103;SDS011;34915;52.926;11.116;2022-11-15T07:34:43;9.83;;;6.87;;
49103;SDS011;34915;52.926;11.116;2022-11-15T07:37:10;12.00;;;6.50;;
49103;SDS011;34915;52.926;11.116;2022-11-15T07:39:35;11.07;;;7.10;;
49103;SDS011;34915;52.926;11.116;2022-11-15T07:42:01;8.43;;;5.67;;
49103;SDS011;34915;52.926;11.116;2022-11-15T07:44:46;7.50;;;5.33;;
49103;SDS011;34915;52.926;11.116;2022-11-15T07:47:11;8.37;;;5.53;;
49103;SDS011;34915;52.926;11.116;2022-11-15T07:49:38;8.37;;;5.23;;
49103;SDS011;34915;52.926;11.116;2022-11-15T07:52:04;8.33;;;5.97;;
49103;SDS011;34915;52.926;11.116;2022-11-15T07:54:29;9.77;;;5.83;;
49103;SDS011;34915;52.926;11.116;2022-11-15T07:56:55;8.70;;;5.73;;
49103;SDS011;34915;52.926;11.116;2022-11-15T07:59:20;8.67;;;5.80;;
49103;SDS011;34915;52.926;11.116;2022-11-15T08:01:48;8.20;;;5.53;;
49103;SDS011;34915;52.926;11.116;2022-11-15T08:04:14;10.17;;;6.50;;
49103;SDS011;34915;52.926;11.116;2022-11-15T08:06:40;8.83;;;5.80;;
49103;SDS011;34915;52.926;11.116;2022-11-15T08:09:05;10.10;;;6.07;;
49103;SDS011;34915;52.926;11.116;2022-11-15T08:11:31;8.37;;;5.80;;
49103;SDS011;34915;52.926;11.116;2022-11-15T08:13:57;12.37;;;6.00;;
49103;SDS011;34915;52.926;11.116;2022-11-15T08:16:23;12.20;;;6.33;;
49103;SDS011;34915;52.926;11.116;2022-11-15T08:18:49;12.80;;;6.63;;
49103;SDS011;34915;52.926;11.116;2022-11-15T08:21:17;12.37;;;6.57;;
49103;SDS011;34915;52.926;11.116;2022-11-15T08:23:44;9.43;;;6.13;;
49103;SDS011;34915;52.926;11.116;2022-11-15T08:26:10;11.10;;;7.20;;
49103;SDS011;34915;52.926;11.116;2022-11-15T08:28:37;10.70;;;5.83;;
49103;SDS011;34915;52.926;11.116;2022-11-15T08:31:03;13.37;;;7.30;;
49103;SDS011;34915;52.926;11.116;2022-11-15T08:33:30;11.87;;;6.80;;
49103;SDS011;34915;52.926;11.116;2022-11-15T08:35:57;11.87;;;7.10;;
49103;SDS011;34915;52.926;11.116;2022-11-15T08:38:24;10.53;;;6.03;;
49103;SDS011;34915;52.926;11.116;2022-11-15T08:40:50;11.03;;;6.77;;
49103;SDS011;34915;52.926;11.116;2022-11-15T08:43:17;12.77;;;7.10;;
49103;SDS011;34915;52.926;11.116;2022-11-15T08:45:43;8.93;;;5.10;;
49103;SDS011;34915;52.926;11.116;2022-11-15T08:48:09;8.50;;;4.53;;
49103;SDS011;34915;52.926;11.116;2022-11-15T08:50:35;11.17;;;5.17;;
49103;SDS011;34915;52.926;11.116;2022-11-15T08:53:04;10.13;;;5.40;;
49103;SDS011;34915;52.926;11.116;2022-11-15T08:55:35;7.47;;;4.70;;
49103;SDS011;34915;52.926;11.116;2022-11-15T08:58:03;6.07;;;3.90;;
49103;SDS011;34915;52.926;11.116;2022-11-15T09:00:29;7.63;;;4.70;;
49103;SDS011;34915;52.926;11.116;2022-11-15T09:02:54;6.80;;;4.40;;
49103;SDS011;34915;52.926;11.116;2022-11-15T09:05:20;8.77;;;4.57;;
49103;SDS011;34915;52.926;11.116;2022-11-15T09:07:46;7.10;;;3.93;;
49103;SDS011;34915;52.926;11.116;2022-11-15T09:10:11;8.20;;;3.97;;
49103;SDS011;34915;52.926;11.116;2022-11-15T09:12:37;6.77;;;4.30;;
49103;SDS011;34915;52.926;11.116;2022-11-15T09:15:03;10.30;;;4.70;;
49103;SDS011;34915;52.926;11.116;2022-11-15T09:17:30;8.50;;;5.00;;
49103;SDS011;34915;52.926;11.116;2022-11-15T09:19:56;6.03;;;3.63;;
49103;SDS011;34915;52.926;11.116;2022-11-15T09:22:22;7.13;;;4.17;;
49103;SDS011;34915;52.926;11.116;2022-11-15T09:24:47;7.63;;;4.40;;
49103;SDS011;34915;52.926;11.116;2022-11-15T09:27:13;8.97;;;4.70;;
49103;SDS011;34915;52.926;11.116;2022-11-15T09:29:38;10.03;;;5.27;;
49103;SDS011;34915;52.926;11.116;2022-11-15T09:32:04;8.90;;;4.20;;
49103;SDS011;34915;52.926;11.116;2022-11-15T09:34:30;12.20;;;5.00;;
49103;SDS011;34915;52.926;11.116;2022-11-15T09:36:55;10.30;;;4.80;;
49103;SDS011;34915;52.926;11.116;2022-11-15T09:39:21;9.03;;;4.73;;
49103;SDS011;34915;52.926;11.116;2022-11-15T09:47:47;8.63;;;5.07;;
49103;SDS011;34915;52.926;11.116;2022-11-15T09:53:28;5.63;;;4.40;;
49103;SDS011;34915;52.926;11.116;2022-11-15T09:55:58;8.10;;;4.70;;
49103;SDS011;34915;52.926;11.116;2022-11-15T10:01:13;6.80;;;4.77;;
49103;SDS011;34915;52.926;11.116;2022-11-15T10:03:45;8.57;;;4.67;;
49103;SDS011;34915;52.926;11.116;2022-11-15T10:06:21;9.40;;;4.30;;
49103;SDS011;34915;52.926;11.116;2022-11-15T10:09:07;6.80;;;4.40;;
49103;SDS011;34915;52.926;11.116;2022-11-15T10:11:39;6.00;;;3.67;;
49103;SDS011;34915;52.926;11.116;2022-11-15T10:14:15;7.17;;;4.50;;
49103;SDS011;34915;52.926;11.116;2022-11-15T10:20:24;4.87;;;3.57;;
49103;SDS011;34915;52.926;11.116;2022-11-15T10:27:35;8.70;;;4.63;;
49103;SDS011;34915;52.926;11.116;2022-11-15T10:30:01;5.10;;;3.70;;
49103;SDS011;34915;52.926;11.116;2022-11-15T10:32:35;5.33;;;3.77;;
49103;SDS011;34915;52.926;11.116;2022-11-15T10:35:15;7.20;;;3.60;;
49103;SDS011;34915;52.926;11.116;2022-11-15T10:37:48;6.47;;;3.80;;
49103;SDS011;34915;52.926;11.116;2022-11-15T10:40:21;6.80;;;3.97;;
49103;SDS011;34915;52.926;11.116;2022-11-15T10:42:48;6.73;;;3.80;;
49103;SDS011;34915;52.926;11.116;2022-11-15T10:45:31;5.10;;;3.43;;
49103;SDS011;34915;52.926;11.116;2022-11-15T10:50:45;6.57;;;4.03;;
49103;SDS011;34915;52.926;11.116;2022-11-15T10:53:23;5.23;;;3.87;;
49103;SDS011;34915;52.926;11.116;2022-11-15T10:55:53;6.63;;;3.40;;
49103;SDS011;34915;52.926;11.116;2022-11-15T10:58:30;4.33;;;3.13;;
49103;SDS011;34915;52.926;11.116;2022-11-15T11:01:14;5.33;;;3.40;;
49103;SDS011;34915;52.926;11.116;2022-11-15T11:03:43;6.77;;;3.33;;
49103;SDS011;34915;52.926;11.116;2022-11-15T11:06:14;6.30;;;3.57;;
49103;SDS011;34915;52.926;11.116;2022-11-15T11:11:22;7.43;;;3.33;;
49103;SDS011;34915;52.926;11.116;2022-11-15T11:13:48;5.47;;;3.77;;
49103;SDS011;34915;52.926;11.116;2022-11-15T11:21:26;4.03;;;2.90;;
49103;SDS011;34915;52.926;11.116;2022-11-15T11:24:08;5.33;;;3.30;;
49103;SDS011;34915;52.926;11.116;2022-11-15T11:26:42;4.47;;;3.13;;
49103;SDS011;34915;52.926;11.116;2022-11-15T11:37:59;4.33;;;3.33;;
49103;SDS011;34915;52.926;11.116;2022-11-15T11:40:43;6.87;;;3.43;;
49103;SDS011;34915;52.926;11.116;2022-11-15T11:43:26;5.90;;;3.93;;
49103;SDS011;34915;52.926;11.116;2022-11-15T11:49:14;4.50;;;3.30;;
49103;SDS011;34915;52.926;11.116;2022-11-15T11:51:47;4.70;;;3.20;;
49103;SDS011;34915;52.926;11.116;2022-11-15T12:02:43;4.73;;;2.67;;
49103;SDS011;34915;52.926;11.116;2022-11-15T12:10:39;3.37;;;2.33;;
49103;SDS011;34915;52.926;11.116;2022-11-15T12:13:15;5.27;;;2.30;;
49103;SDS011;34915;52.926;11.116;2022-11-15T12:18:28;4.10;;;2.70;;
49103;SDS011;34915;52.926;11.116;2022-11-15T12:20:56;3.77;;;2.07;;
49103;SDS011;34915;52.926;11.116;2022-11-15T12:23:32;3.73;;;2.83;;
49103;SDS011;34915;52.926;11.116;2022-11-15T12:26:08;6.40;;;3.17;;
49103;SDS011;34915;52.926;11.116;2022-11-15T12:31:30;3.00;;;2.47;;
49103;SDS011;34915;52.926;11.116;2022-11-15T12:34:01;4.63;;;2.77;;
49103;SDS011;34915;52.926;11.116;2022-11-15T12:36:34;4.60;;;2.73;;
49103;SDS011;34915;52.926;11.116;2022-11-15T12:41:44;6.53;;;3.33;;
49103;SDS011;34915;52.926;11.116;2022-11-15T13:17:45;5.80;;;2.97;;
49103;SDS011;34915;52.926;11.116;2022-11-15T13:26:15;4.40;;;2.47;;
49103;SDS011;34915;52.926;11.116;2022-11-15T13:28:36;4.37;;;3.07;;
49103;SDS011;34915;52.926;11.116;2022-11-15T13:34:19;5.60;;;3.00;;
49103;SDS011;34915;52.926;11.116;2022-11-15T13:36:47;3.40;;;2.70;;
49103;SDS011;34915;52.926;11.116;2022-11-15T13:39:32;4.47;;;3.20;;
49103;SDS011;34915;52.926;11.116;2022-11-15T13:41:59;4.83;;;2.97;;
49103;SDS011;34915;52.926;11.116;2022-11-15T13:44:29;4.10;;;3.23;;
49103;SDS011;34915;52.926;11.116;2022-11-15T13:47:03;5.23;;;2.80;;
49103;SDS011;34915;52.926;11.116;2022-11-15T13:49:50;4.37;;;2.83;;
49103;SDS011;34915;52.926;11.116;2022-11-15T13:52:18;3.43;;;2.40;;
49103;SDS011;34915;52.926;11.116;2022-11-15T13:54:47;4.87;;;2.70;;
49103;SDS011;34915;52.926;11.116;2022-11-15T13:57:32;4.67;;;3.00;;
49103;SDS011;34915;52.926;11.116;2022-11-15T14:03:22;4.03;;;2.70;;
49103;SDS011;34915;52.926;11.116;2022-11-15T14:06:11;4.73;;;2.73;;
49103;SDS011;34915;52.926;11.116;2022-11-15T14:08:40;4.40;;;3.07;;
49103;SDS011;34915;52.926;11.116;2022-11-15T14:11:22;4.03;;;2.77;;
49103;SDS011;34915;52.926;11.116;2022-11-15T14:16:33;4.73;;;3.03;;
49103;SDS011;34915;52.926;11.116;2022-11-15T14:19:01;5.67;;;2.80;;
49103;SDS011;34915;52.926;11.116;2022-11-15T14:21:29;3.73;;;2.60;;
49103;SDS011;34915;52.926;11.116;2022-11-15T14:26:42;4.33;;;2.90;;
49103;SDS011;34915;52.926;11.116;2022-11-15T14:29:27;4.77;;;2.73;;
49103;SDS011;34915;52.926;11.116;2022-11-15T14:32:15;4.47;;;3.10;;
49103;SDS011;34915;52.926;11.116;2022-11-15T14:34:49;4.03;;;3.03;;
49103;SDS011;34915;52.926;11.116;2022-11-15T14:37:24;4.47;;;3.33;;
49103;SDS011;34915;52.926;11.116;2022-11-15T14:39:52;4.37;;;2.50;;
49103;SDS011;34915;52.926;11.116;2022-11-15T14:42:18;5.47;;;3.10;;
49103;SDS011;34915;52.926;11.116;2022-11-15T14:44:45;3.93;;;2.83;;
49103;SDS011;34915;52.926;11.116;2022-11-15T14:47:11;5.13;;;3.03;;
49103;SDS011;34915;52.926;11.116;2022-11-15T14:49:37;4.67;;;3.03;;
49103;SDS011;34915;52.926;11.116;2022-11-15T14:52:04;4.30;;;3.50;;
49103;SDS011;34915;52.926;11.116;2022-11-15T14:54:41;4.40;;;3.23;;
49103;SDS011;34915;52.926;11.116;2022-11-15T14:57:07;4.53;;;3.20;;
49103;SDS011;34915;52.926;11.116;2022-11-15T14:59:32;5.87;;;4.03;;
49103;SDS011;34915;52.926;11.116;2022-11-15T15:01:58;5.70;;;3.23;;
49103;SDS011;34915;52.926;11.116;2022-11-15T15:04:24;4.80;;;2.87;;
49103;SDS011;34915;52.926;11.116;2022-11-15T15:06:50;4.13;;;3.07;;
49103;SDS011;34915;52.926;11.116;2022-11-15T15:09:15;4.13;;;2.90;;
49103;SDS011;34915;52.926;11.116;2022-11-15T15:11:41;5.73;;;2.80;;
49103;SDS011;34915;52.926;11.116;2022-11-15T15:14:07;5.73;;;3.03;;
49103;SDS011;34915;52.926;11.116;2022-11-15T15:16:33;6.17;;;3.23;;
49103;SDS011;34915;52.926;11.116;2022-11-15T15:18:59;4.33;;;3.13;;
49103;SDS011;34915;52.926;11.116;2022-11-15T15:21:27;4.23;;;2.87;;
49103;SDS011;34915;52.926;11.116;2022-11-15T15:23:53;4.47;;;3.10;;
49103;SDS011;34915;52.926;11.116;2022-11-15T15:26:19;4.50;;;3.13;;
49103;SDS011;34915;52.926;11.116;2022-11-15T15:28:46;3.93;;;2.67;;
49103;SDS011;34915;52.926;11.116;2022-11-15T15:31:14;3.47;;;2.70;;
49103;SDS011;34915;52.926;11.116;2022-11-15T15:33:40;4.20;;;2.63;;
49103;SDS011;34915;52.926;11.116;2022-11-15T15:36:09;3.87;;;2.97;;
49103;SDS011;34915;52.926;11.116;2022-11-15T15:38:37;5.37;;;3.17;;
49103;SDS011;34915;52.926;11.116;2022-11-15T15:41:02;3.70;;;2.93;;
49103;SDS011;34915;52.926;11.116;2022-11-15T15:43:28;4.70;;;3.20;;
49103;SDS011;34915;52.926;11.116;2022-11-15T15:45:54;5.23;;;2.77;;
49103;SDS011;34915;52.926;11.116;2022-11-15T15:48:22;5.67;;;2.70;;
49103;SDS011;34915;52.926;11.116;2022-11-15T15:50:47;7.27;;;2.77;;
49103;SDS011;34915;52.926;11.116;2022-11-15T15:53:14;8.73;;;3.60;;
49103;SDS011;34915;52.926;11.116;2022-11-15T15:55:42;11.03;;;5.10;;
49103;SDS011;34915;52.926;11.116;2022-11-15T15:58:08;6.47;;;4.00;;
49103;SDS011;34915;52.926;11.116;2022-11-15T16:00:34;12.40;;;5.83;;
49103;SDS011;34915;52.926;11.116;2022-11-15T16:03:00;8.07;;;4.70;;
49103;SDS011;34915;52.926;11.116;2022-11-15T16:05:26;6.60;;;3.80;;
49103;SDS011;34915;52.926;11.116;2022-11-15T16:07:52;9.23;;;4.77;;
49103;SDS011;34915;52.926;11.116;2022-11-15T16:10:20;10.50;;;6.30;;
49103;SDS011;34915;52.926;11.116;2022-11-15T16:12:50;6.27;;;4.03;;
49103;SDS011;34915;52.926;11.116;2022-11-15T16:15:17;5.00;;;3.30;;
49103;SDS011;34915;52.926;11.116;2022-11-15T16:17:45;6.80;;;4.70;;
49103;SDS011;34915;52.926;11.116;2022-11-15T16:22:54;10.87;;;6.23;;
49103;SDS011;34915;52.926;11.116;2022-11-15T16:25:20;11.77;;;7.20;;
49103;SDS011;34915;52.926;11.116;2022-11-15T16:27:45;10.00;;;6.43;;
49103;SDS011;34915;52.926;11.116;2022-11-15T16:30:15;11.47;;;6.17;;
49103;SDS011;34915;52.926;11.116;2022-11-15T16:32:42;5.53;;;3.83;;
49103;SDS011;34915;52.926;11.116;2022-11-15T16:35:11;5.30;;;3.90;;
49103;SDS011;34915;52.926;11.116;2022-11-15T16:37:38;5.97;;;4.10;;
49103;SDS011;34915;52.926;11.116;2022-11-15T16:40:16;6.53;;;4.30;;
49103;SDS011;34915;52.926;11.116;2022-11-15T16:42:50;6.00;;;3.90;;
49103;SDS011;34915;52.926;11.116;2022-11-15T16:45:15;6.10;;;4.23;;
49103;SDS011;34915;52.926;11.116;2022-11-15T16:47:42;4.80;;;3.60;;
49103;SDS011;34915;52.926;11.116;2022-11-15T16:52:51;7.57;;;3.80;;
49103;SDS011;34915;52.926;11.116;2022-11-15T16:55:21;10.70;;;5.00;;
49103;SDS011;34915;52.926;11.116;2022-11-15T16:57:48;7.50;;;4.70;;
49103;SDS011;34915;52.926;11.116;2022-11-15T17:00:14;7.20;;;4.40;;
49103;SDS011;34915;52.926;11.116;2022-11-15T17:02:45;6.00;;;3.67;;
49103;SDS011;34915;52.926;11.116;2022-11-15T17:05:12;6.17;;;3.60;;
49103;SDS011;34915;52.926;11.116;2022-11-15T17:07:39;8.83;;;4.63;;
49103;SDS011;34915;52.926;11.116;2022-11-15T17:10:05;7.63;;;4.87;;
49103;SDS011;34915;52.926;11.116;2022-11-15T17:12:34;7.33;;;5.13;;
49103;SDS011;34915;52.926;11.116;2022-11-15T17:15:00;9.90;;;4.83;;
49103;SDS011;34915;52.926;11.116;2022-11-15T17:17:26;7.57;;;4.20;;
49103;SDS011;34915;52.926;11.116;2022-11-15T17:19:52;7.47;;;4.13;;